Terminal Aerodrome Forecast
Issued by NWS

Home | Current Version | Previous Version | Text Only | Print | Product List | Glossary On
Versions: 1 2 3 4 5 6 7 8 9 10 11 12 13 14 15 16 17
000
FTUS46 KLOX 011700 RRA
TAFSBA
TAF
KSBA 011741Z 0118/0218 18005KT P6SM BKN010
     FM012030 24007KT P6SM SCT012
     FM020300 VRB03KT P6SM SKC
     FM021000 10005KT 5SM BR OVC005
     FM021600 VRB03KT 6SM BR OVC008=

USA.gov is the U.S. government's official web portal to all federal, state and local government web resources and services.